sensor_id;sensor_type;location;lat;lon;timestamp;temperature;humidity
18141;DHT22;9196;49.194;12.526;2022-07-09T00:02:09;15.60;99.90
18141;DHT22;9196;49.194;12.526;2022-07-09T00:04:36;15.60;99.90
18141;DHT22;9196;49.194;12.526;2022-07-09T00:07:03;15.50;99.90
18141;DHT22;9196;49.194;12.526;2022-07-09T00:09:30;15.40;99.90
18141;DHT22;9196;49.194;12.526;2022-07-09T00:11:57;15.40;99.90
18141;DHT22;9196;49.194;12.526;2022-07-09T00:14:24;15.20;99.90
18141;DHT22;9196;49.194;12.526;2022-07-09T00:16:52;15.10;99.90
18141;DHT22;9196;49.194;12.526;2022-07-09T00:19:19;15.10;99.90
18141;DHT22;9196;49.194;12.526;2022-07-09T00:21:45;15.10;99.90
18141;DHT22;9196;49.194;12.526;2022-07-09T00:24:12;15.10;99.90
18141;DHT22;9196;49.194;12.526;2022-07-09T00:26:39;15.00;99.90
18141;DHT22;9196;49.194;12.526;2022-07-09T00:29:06;14.90;99.90
18141;DHT22;9196;49.194;12.526;2022-07-09T00:31:33;14.90;99.90
18141;DHT22;9196;49.194;12.526;2022-07-09T00:34:01;14.90;99.90
18141;DHT22;9196;49.194;12.526;2022-07-09T00:36:28;14.80;99.90
18141;DHT22;9196;49.194;12.526;2022-07-09T00:38:54;14.90;99.90
18141;DHT22;9196;49.194;12.526;2022-07-09T00:41:21;14.90;99.90
18141;DHT22;9196;49.194;12.526;2022-07-09T00:43:49;14.90;99.90
18141;DHT22;9196;49.194;12.526;2022-07-09T00:46:17;14.90;99.90
18141;DHT22;9196;49.194;12.526;2022-07-09T00:48:44;14.80;99.90
18141;DHT22;9196;49.194;12.526;2022-07-09T00:51:15;14.80;99.90
18141;DHT22;9196;49.194;12.526;2022-07-09T00:53:44;14.80;99.90
18141;DHT22;9196;49.194;12.526;2022-07-09T00:56:12;14.80;99.90
18141;DHT22;9196;49.194;12.526;2022-07-09T00:58:39;14.80;99.90
18141;DHT22;9196;49.194;12.526;2022-07-09T01:01:08;14.80;99.90
18141;DHT22;9196;49.194;12.526;2022-07-09T01:03:35;14.70;99.90
18141;DHT22;9196;49.194;12.526;2022-07-09T01:06:02;14.70;99.90
18141;DHT22;9196;49.194;12.526;2022-07-09T01:08:30;14.70;99.90
18141;DHT22;9196;49.194;12.526;2022-07-09T01:10:57;14.70;99.90
18141;DHT22;9196;49.194;12.526;2022-07-09T01:13:25;14.80;99.90
18141;DHT22;9196;49.194;12.526;2022-07-09T01:15:52;14.70;99.90
18141;DHT22;9196;49.194;12.526;2022-07-09T01:18:18;14.70;99.90
18141;DHT22;9196;49.194;12.526;2022-07-09T01:20:46;14.60;99.90
18141;DHT22;9196;49.194;12.526;2022-07-09T01:23:13;14.50;99.90
18141;DHT22;9196;49.194;12.526;2022-07-09T01:25:42;14.40;99.90
18141;DHT22;9196;49.194;12.526;2022-07-09T01:28:10;14.40;99.90
18141;DHT22;9196;49.194;12.526;2022-07-09T01:30:38;14.30;99.90
18141;DHT22;9196;49.194;12.526;2022-07-09T01:33:06;14.30;99.90
18141;DHT22;9196;49.194;12.526;2022-07-09T01:35:32;14.30;99.90
18141;DHT22;9196;49.194;12.526;2022-07-09T01:38:01;14.30;99.90
18141;DHT22;9196;49.194;12.526;2022-07-09T01:40:27;14.30;99.90
18141;DHT22;9196;49.194;12.526;2022-07-09T01:42:54;14.40;99.90
18141;DHT22;9196;49.194;12.526;2022-07-09T01:45:21;14.40;99.90
18141;DHT22;9196;49.194;12.526;2022-07-09T01:47:48;14.40;99.90
18141;DHT22;9196;49.194;12.526;2022-07-09T01:50:15;14.50;99.90
18141;DHT22;9196;49.194;12.526;2022-07-09T01:52:42;14.50;99.90
18141;DHT22;9196;49.194;12.526;2022-07-09T01:55:10;14.50;99.90
18141;DHT22;9196;49.194;12.526;2022-07-09T01:57:37;14.50;99.90
18141;DHT22;9196;49.194;12.526;2022-07-09T02:00:05;14.50;99.90
18141;DHT22;9196;49.194;12.526;2022-07-09T02:02:33;14.50;99.90
18141;DHT22;9196;49.194;12.526;2022-07-09T02:05:00;14.50;99.90
18141;DHT22;9196;49.194;12.526;2022-07-09T02:07:26;14.50;99.90
18141;DHT22;9196;49.194;12.526;2022-07-09T02:09:53;14.40;99.90
18141;DHT22;9196;49.194;12.526;2022-07-09T02:12:22;14.30;99.90
18141;DHT22;9196;49.194;12.526;2022-07-09T02:14:48;14.30;99.90
18141;DHT22;9196;49.194;12.526;2022-07-09T02:17:16;14.40;99.90
18141;DHT22;9196;49.194;12.526;2022-07-09T02:19:43;14.40;99.90
18141;DHT22;9196;49.194;12.526;2022-07-09T02:22:09;14.40;99.90
18141;DHT22;9196;49.194;12.526;2022-07-09T02:24:36;14.40;99.90
18141;DHT22;9196;49.194;12.526;2022-07-09T02:27:04;14.40;99.90
18141;DHT22;9196;49.194;12.526;2022-07-09T02:29:32;14.40;99.90
18141;DHT22;9196;49.194;12.526;2022-07-09T02:32:02;14.50;99.90
18141;DHT22;9196;49.194;12.526;2022-07-09T02:34:29;14.50;99.90
18141;DHT22;9196;49.194;12.526;2022-07-09T02:36:55;14.40;99.90
18141;DHT22;9196;49.194;12.526;2022-07-09T02:39:22;14.40;99.90
18141;DHT22;9196;49.194;12.526;2022-07-09T02:41:49;14.30;99.90
18141;DHT22;9196;49.194;12.526;2022-07-09T02:44:16;14.20;99.90
18141;DHT22;9196;49.194;12.526;2022-07-09T02:46:44;14.20;99.90
18141;DHT22;9196;49.194;12.526;2022-07-09T02:49:11;14.20;99.90
18141;DHT22;9196;49.194;12.526;2022-07-09T02:51:38;14.20;99.90
18141;DHT22;9196;49.194;12.526;2022-07-09T02:54:05;14.30;99.90
18141;DHT22;9196;49.194;12.526;2022-07-09T02:56:32;14.20;99.90
18141;DHT22;9196;49.194;12.526;2022-07-09T02:58:59;14.20;99.90
18141;DHT22;9196;49.194;12.526;2022-07-09T03:01:26;14.20;99.90
18141;DHT22;9196;49.194;12.526;2022-07-09T03:03:54;14.10;99.90
18141;DHT22;9196;49.194;12.526;2022-07-09T03:06:21;14.20;99.90
18141;DHT22;9196;49.194;12.526;2022-07-09T03:08:48;14.20;99.90
18141;DHT22;9196;49.194;12.526;2022-07-09T03:11:15;14.10;99.90
18141;DHT22;9196;49.194;12.526;2022-07-09T03:13:42;14.10;99.90
18141;DHT22;9196;49.194;12.526;2022-07-09T03:16:08;14.10;99.90
18141;DHT22;9196;49.194;12.526;2022-07-09T03:18:37;14.10;99.90
18141;DHT22;9196;49.194;12.526;2022-07-09T03:21:06;14.10;99.90
18141;DHT22;9196;49.194;12.526;2022-07-09T03:23:34;14.20;99.90
18141;DHT22;9196;49.194;12.526;2022-07-09T03:26:01;14.20;99.90
18141;DHT22;9196;49.194;12.526;2022-07-09T03:28:27;14.30;99.90
18141;DHT22;9196;49.194;12.526;2022-07-09T03:30:54;14.30;99.90
18141;DHT22;9196;49.194;12.526;2022-07-09T03:33:21;14.30;99.90
18141;DHT22;9196;49.194;12.526;2022-07-09T03:35:48;14.30;99.90
18141;DHT22;9196;49.194;12.526;2022-07-09T03:38:16;14.30;99.90
18141;DHT22;9196;49.194;12.526;2022-07-09T03:40:43;14.20;99.90
18141;DHT22;9196;49.194;12.526;2022-07-09T03:43:10;14.10;99.90
18141;DHT22;9196;49.194;12.526;2022-07-09T03:45:37;14.00;99.90
18141;DHT22;9196;49.194;12.526;2022-07-09T03:48:05;14.10;99.90
18141;DHT22;9196;49.194;12.526;2022-07-09T03:50:32;14.10;99.90
18141;DHT22;9196;49.194;12.526;2022-07-09T03:52:58;14.10;99.90
18141;DHT22;9196;49.194;12.526;2022-07-09T03:55:26;14.20;99.90
18141;DHT22;9196;49.194;12.526;2022-07-09T03:57:54;14.30;99.90
18141;DHT22;9196;49.194;12.526;2022-07-09T04:00:21;14.30;99.90
18141;DHT22;9196;49.194;12.526;2022-07-09T04:02:48;14.30;99.90
18141;DHT22;9196;49.194;12.526;2022-07-09T04:05:15;14.30;99.90
18141;DHT22;9196;49.194;12.526;2022-07-09T04:07:41;14.40;99.90
18141;DHT22;9196;49.194;12.526;2022-07-09T04:10:08;14.40;99.90
18141;DHT22;9196;49.194;12.526;2022-07-09T04:12:37;14.40;99.90
18141;DHT22;9196;49.194;12.526;2022-07-09T04:15:05;14.50;99.90
18141;DHT22;9196;49.194;12.526;2022-07-09T04:17:32;14.60;99.90
18141;DHT22;9196;49.194;12.526;2022-07-09T04:19:59;14.60;99.90
18141;DHT22;9196;49.194;12.526;2022-07-09T04:22:26;14.70;99.90
18141;DHT22;9196;49.194;12.526;2022-07-09T04:24:53;14.70;99.90
18141;DHT22;9196;49.194;12.526;2022-07-09T04:27:20;14.70;99.90
18141;DHT22;9196;49.194;12.526;2022-07-09T04:29:48;14.70;99.90
18141;DHT22;9196;49.194;12.526;2022-07-09T04:32:14;14.70;99.90
18141;DHT22;9196;49.194;12.526;2022-07-09T04:34:41;14.70;99.90
18141;DHT22;9196;49.194;12.526;2022-07-09T04:37:08;14.60;99.90
18141;DHT22;9196;49.194;12.526;2022-07-09T04:39:35;14.50;99.90
18141;DHT22;9196;49.194;12.526;2022-07-09T04:42:02;14.50;99.90
18141;DHT22;9196;49.194;12.526;2022-07-09T04:44:29;14.60;99.90
18141;DHT22;9196;49.194;12.526;2022-07-09T04:46:57;14.70;99.90
18141;DHT22;9196;49.194;12.526;2022-07-09T04:49:24;14.70;99.90
18141;DHT22;9196;49.194;12.526;2022-07-09T04:51:50;14.70;99.90
18141;DHT22;9196;49.194;12.526;2022-07-09T04:54:17;14.60;99.90
18141;DHT22;9196;49.194;12.526;2022-07-09T04:56:44;14.70;99.90
18141;DHT22;9196;49.194;12.526;2022-07-09T04:59:11;14.80;99.90
18141;DHT22;9196;49.194;12.526;2022-07-09T05:01:37;14.80;99.90
18141;DHT22;9196;49.194;12.526;2022-07-09T05:04:05;14.90;99.90
18141;DHT22;9196;49.194;12.526;2022-07-09T05:06:32;14.90;99.90
18141;DHT22;9196;49.194;12.526;2022-07-09T05:08:59;15.00;99.90
18141;DHT22;9196;49.194;12.526;2022-07-09T05:11:26;15.10;99.90
18141;DHT22;9196;49.194;12.526;2022-07-09T05:13:53;15.20;99.90
18141;DHT22;9196;49.194;12.526;2022-07-09T05:16:19;15.30;99.90
18141;DHT22;9196;49.194;12.526;2022-07-09T05:18:46;15.30;99.90
18141;DHT22;9196;49.194;12.526;2022-07-09T05:21:14;15.20;99.90
18141;DHT22;9196;49.194;12.526;2022-07-09T05:23:41;15.20;99.90
18141;DHT22;9196;49.194;12.526;2022-07-09T05:26:08;15.20;99.90
18141;DHT22;9196;49.194;12.526;2022-07-09T05:28:35;15.30;99.90
18141;DHT22;9196;49.194;12.526;2022-07-09T05:31:02;15.40;99.90
18141;DHT22;9196;49.194;12.526;2022-07-09T05:33:29;15.40;99.90
18141;DHT22;9196;49.194;12.526;2022-07-09T05:35:55;15.50;99.90
18141;DHT22;9196;49.194;12.526;2022-07-09T05:38:24;15.60;99.90
18141;DHT22;9196;49.194;12.526;2022-07-09T05:40:50;15.70;99.90
18141;DHT22;9196;49.194;12.526;2022-07-09T05:43:17;15.80;99.90
18141;DHT22;9196;49.194;12.526;2022-07-09T05:45:44;15.80;99.90
18141;DHT22;9196;49.194;12.526;2022-07-09T05:48:11;15.90;99.90
18141;DHT22;9196;49.194;12.526;2022-07-09T05:50:37;15.90;99.90
18141;DHT22;9196;49.194;12.526;2022-07-09T05:53:05;16.00;99.90
18141;DHT22;9196;49.194;12.526;2022-07-09T05:55:33;16.10;99.90
18141;DHT22;9196;49.194;12.526;2022-07-09T05:58:00;16.20;99.90
18141;DHT22;9196;49.194;12.526;2022-07-09T06:00:27;16.20;99.90
18141;DHT22;9196;49.194;12.526;2022-07-09T06:02:53;16.30;99.90
18141;DHT22;9196;49.194;12.526;2022-07-09T06:05:20;16.40;99.90
18141;DHT22;9196;49.194;12.526;2022-07-09T06:07:47;16.50;99.90
18141;DHT22;9196;49.194;12.526;2022-07-09T06:10:14;16.40;99.90
18141;DHT22;9196;49.194;12.526;2022-07-09T06:12:44;16.50;99.90
18141;DHT22;9196;49.194;12.526;2022-07-09T06:15:11;16.50;99.90
18141;DHT22;9196;49.194;12.526;2022-07-09T06:17:38;16.60;99.90
18141;DHT22;9196;49.194;12.526;2022-07-09T06:20:06;16.60;99.90
18141;DHT22;9196;49.194;12.526;2022-07-09T06:22:34;16.80;99.90
18141;DHT22;9196;49.194;12.526;2022-07-09T06:25:01;16.80;99.90
18141;DHT22;9196;49.194;12.526;2022-07-09T06:27:28;16.90;99.90
18141;DHT22;9196;49.194;12.526;2022-07-09T06:29:56;16.80;99.90
18141;DHT22;9196;49.194;12.526;2022-07-09T06:32:22;16.90;99.90
18141;DHT22;9196;49.194;12.526;2022-07-09T06:34:49;17.00;99.90
18141;DHT22;9196;49.194;12.526;2022-07-09T06:37:16;17.00;99.90
18141;DHT22;9196;49.194;12.526;2022-07-09T06:39:43;17.20;99.90
18141;DHT22;9196;49.194;12.526;2022-07-09T06:42:14;17.40;99.90
18141;DHT22;9196;49.194;12.526;2022-07-09T06:44:42;17.40;99.90
18141;DHT22;9196;49.194;12.526;2022-07-09T06:47:10;17.20;99.90
18141;DHT22;9196;49.194;12.526;2022-07-09T06:49:37;17.30;99.90
18141;DHT22;9196;49.194;12.526;2022-07-09T06:52:05;17.40;99.90
18141;DHT22;9196;49.194;12.526;2022-07-09T06:54:33;17.50;99.90
18141;DHT22;9196;49.194;12.526;2022-07-09T06:56:59;17.60;99.90
18141;DHT22;9196;49.194;12.526;2022-07-09T06:59:27;17.80;99.90
18141;DHT22;9196;49.194;12.526;2022-07-09T07:01:53;18.00;99.90
18141;DHT22;9196;49.194;12.526;2022-07-09T07:04:22;18.00;99.90
18141;DHT22;9196;49.194;12.526;2022-07-09T07:06:50;18.20;99.90
18141;DHT22;9196;49.194;12.526;2022-07-09T07:09:17;18.30;99.90
18141;DHT22;9196;49.194;12.526;2022-07-09T07:11:47;18.50;99.90
18141;DHT22;9196;49.194;12.526;2022-07-09T07:14:14;18.60;99.90
18141;DHT22;9196;49.194;12.526;2022-07-09T07:16:40;18.60;99.90
18141;DHT22;9196;49.194;12.526;2022-07-09T07:19:07;18.50;99.90
18141;DHT22;9196;49.194;12.526;2022-07-09T07:21:37;18.40;99.90
18141;DHT22;9196;49.194;12.526;2022-07-09T07:24:04;18.40;99.90
18141;DHT22;9196;49.194;12.526;2022-07-09T07:26:31;18.40;99.90
18141;DHT22;9196;49.194;12.526;2022-07-09T07:28:58;18.40;99.90
18141;DHT22;9196;49.194;12.526;2022-07-09T07:31:25;18.30;99.90
18141;DHT22;9196;49.194;12.526;2022-07-09T07:33:52;18.30;99.90
18141;DHT22;9196;49.194;12.526;2022-07-09T07:36:19;18.30;99.90
18141;DHT22;9196;49.194;12.526;2022-07-09T07:38:47;18.30;99.90
18141;DHT22;9196;49.194;12.526;2022-07-09T07:41:14;18.30;99.90
18141;DHT22;9196;49.194;12.526;2022-07-09T07:43:42;18.30;99.90
18141;DHT22;9196;49.194;12.526;2022-07-09T07:46:09;18.30;99.90
18141;DHT22;9196;49.194;12.526;2022-07-09T07:48:36;18.30;99.90
18141;DHT22;9196;49.194;12.526;2022-07-09T07:51:03;18.30;99.90
18141;DHT22;9196;49.194;12.526;2022-07-09T07:53:30;18.30;99.90
18141;DHT22;9196;49.194;12.526;2022-07-09T07:56:00;18.20;99.90
18141;DHT22;9196;49.194;12.526;2022-07-09T07:58:27;18.20;99.90
18141;DHT22;9196;49.194;12.526;2022-07-09T08:00:54;18.20;99.90
18141;DHT22;9196;49.194;12.526;2022-07-09T08:03:20;18.20;99.90
18141;DHT22;9196;49.194;12.526;2022-07-09T08:05:47;18.30;99.90
18141;DHT22;9196;49.194;12.526;2022-07-09T08:08:14;18.30;99.90
18141;DHT22;9196;49.194;12.526;2022-07-09T08:10:41;18.30;99.90
18141;DHT22;9196;49.194;12.526;2022-07-09T08:13:09;18.30;99.90
18141;DHT22;9196;49.194;12.526;2022-07-09T08:15:37;18.40;99.90
18141;DHT22;9196;49.194;12.526;2022-07-09T08:18:04;18.50;99.90
18141;DHT22;9196;49.194;12.526;2022-07-09T08:20:34;18.50;99.90
18141;DHT22;9196;49.194;12.526;2022-07-09T08:23:02;18.50;99.90
18141;DHT22;9196;49.194;12.526;2022-07-09T08:25:29;18.60;99.90
18141;DHT22;9196;49.194;12.526;2022-07-09T08:27:55;18.70;99.90
18141;DHT22;9196;49.194;12.526;2022-07-09T08:30:23;18.80;99.90
18141;DHT22;9196;49.194;12.526;2022-07-09T08:32:50;18.90;99.90
18141;DHT22;9196;49.194;12.526;2022-07-09T08:35:17;18.90;99.90
18141;DHT22;9196;49.194;12.526;2022-07-09T08:37:44;19.00;99.90
18141;DHT22;9196;49.194;12.526;2022-07-09T08:40:11;19.10;99.90
18141;DHT22;9196;49.194;12.526;2022-07-09T08:42:38;19.10;99.10
18141;DHT22;9196;49.194;12.526;2022-07-09T08:45:08;19.10;98.80
18141;DHT22;9196;49.194;12.526;2022-07-09T08:47:38;19.20;99.20
18141;DHT22;9196;49.194;12.526;2022-07-09T08:50:05;19.30;98.50
18141;DHT22;9196;49.194;12.526;2022-07-09T08:52:32;19.30;98.80
18141;DHT22;9196;49.194;12.526;2022-07-09T08:55:01;19.40;98.70
18141;DHT22;9196;49.194;12.526;2022-07-09T08:57:28;19.40;99.20
18141;DHT22;9196;49.194;12.526;2022-07-09T08:59:55;19.40;99.40
18141;DHT22;9196;49.194;12.526;2022-07-09T09:02:22;19.40;99.10
18141;DHT22;9196;49.194;12.526;2022-07-09T09:04:50;19.40;99.10
18141;DHT22;9196;49.194;12.526;2022-07-09T09:07:17;19.50;98.90
18141;DHT22;9196;49.194;12.526;2022-07-09T09:09:47;19.50;99.30
18141;DHT22;9196;49.194;12.526;2022-07-09T09:12:14;19.50;98.50
18141;DHT22;9196;49.194;12.526;2022-07-09T09:14:48;19.50;98.30
18141;DHT22;9196;49.194;12.526;2022-07-09T09:17:15;19.50;98.50
18141;DHT22;9196;49.194;12.526;2022-07-09T09:19:42;19.40;98.80
18141;DHT22;9196;49.194;12.526;2022-07-09T09:22:14;19.40;99.10
18141;DHT22;9196;49.194;12.526;2022-07-09T09:24:41;19.50;98.80
18141;DHT22;9196;49.194;12.526;2022-07-09T09:27:08;19.60;99.00
18141;DHT22;9196;49.194;12.526;2022-07-09T09:29:35;19.70;99.30
18141;DHT22;9196;49.194;12.526;2022-07-09T09:32:09;19.90;98.90
18141;DHT22;9196;49.194;12.526;2022-07-09T09:34:36;20.10;99.90
18141;DHT22;9196;49.194;12.526;2022-07-09T09:37:06;20.20;98.40
18141;DHT22;9196;49.194;12.526;2022-07-09T09:39:35;20.30;98.40
18141;DHT22;9196;49.194;12.526;2022-07-09T09:42:03;20.60;98.10
18141;DHT22;9196;49.194;12.526;2022-07-09T09:44:31;20.70;97.60
18141;DHT22;9196;49.194;12.526;2022-07-09T09:47:03;20.70;97.20
18141;DHT22;9196;49.194;12.526;2022-07-09T09:49:30;20.90;98.10
18141;DHT22;9196;49.194;12.526;2022-07-09T09:52:03;21.10;97.40
18141;DHT22;9196;49.194;12.526;2022-07-09T09:54:32;21.00;96.80
18141;DHT22;9196;49.194;12.526;2022-07-09T09:57:04;20.80;97.00
18141;DHT22;9196;49.194;12.526;2022-07-09T09:59:32;20.80;97.90
18141;DHT22;9196;49.194;12.526;2022-07-09T10:02:02;20.90;96.50
18141;DHT22;9196;49.194;12.526;2022-07-09T10:04:29;20.90;97.00
18141;DHT22;9196;49.194;12.526;2022-07-09T10:06:55;21.00;97.10
18141;DHT22;9196;49.194;12.526;2022-07-09T10:09:22;21.20;97.20
18141;DHT22;9196;49.194;12.526;2022-07-09T10:11:49;21.60;96.40
18141;DHT22;9196;49.194;12.526;2022-07-09T10:14:29;21.90;95.90
18141;DHT22;9196;49.194;12.526;2022-07-09T10:17:08;21.80;95.70
18141;DHT22;9196;49.194;12.526;2022-07-09T10:19:35;21.70;96.20
18141;DHT22;9196;49.194;12.526;2022-07-09T10:22:03;21.80;96.40
18141;DHT22;9196;49.194;12.526;2022-07-09T10:24:31;21.90;95.10
18141;DHT22;9196;49.194;12.526;2022-07-09T10:27:06;21.80;95.90
18141;DHT22;9196;49.194;12.526;2022-07-09T10:29:36;21.80;95.50
18141;DHT22;9196;49.194;12.526;2022-07-09T10:32:03;21.90;94.70
18141;DHT22;9196;49.194;12.526;2022-07-09T10:34:50;22.00;94.50
18141;DHT22;9196;49.194;12.526;2022-07-09T10:37:30;22.00;93.90
18141;DHT22;9196;49.194;12.526;2022-07-09T10:40:10;22.00;94.70
18141;DHT22;9196;49.194;12.526;2022-07-09T10:42:37;22.00;94.50
18141;DHT22;9196;49.194;12.526;2022-07-09T10:45:20;22.00;94.30
18141;DHT22;9196;49.194;12.526;2022-07-09T10:47:51;22.00;94.20
18141;DHT22;9196;49.194;12.526;2022-07-09T10:50:18;21.90;93.30
18141;DHT22;9196;49.194;12.526;2022-07-09T10:52:46;21.80;93.90
18141;DHT22;9196;49.194;12.526;2022-07-09T10:55:15;21.80;94.20
18141;DHT22;9196;49.194;12.526;2022-07-09T10:57:42;21.70;94.40
18141;DHT22;9196;49.194;12.526;2022-07-09T11:00:14;21.60;94.40
18141;DHT22;9196;49.194;12.526;2022-07-09T11:02:52;21.30;94.70
18141;DHT22;9196;49.194;12.526;2022-07-09T11:05:19;21.20;95.10
18141;DHT22;9196;49.194;12.526;2022-07-09T11:07:55;21.10;94.80
18141;DHT22;9196;49.194;12.526;2022-07-09T11:10:22;21.10;95.40
18141;DHT22;9196;49.194;12.526;2022-07-09T11:12:49;21.10;95.20
18141;DHT22;9196;49.194;12.526;2022-07-09T11:15:19;21.10;95.40
18141;DHT22;9196;49.194;12.526;2022-07-09T11:17:55;21.10;95.60
18141;DHT22;9196;49.194;12.526;2022-07-09T11:20:22;21.10;94.60
18141;DHT22;9196;49.194;12.526;2022-07-09T11:22:49;21.00;94.90
18141;DHT22;9196;49.194;12.526;2022-07-09T11:25:17;21.00;95.50
18141;DHT22;9196;49.194;12.526;2022-07-09T11:27:44;20.90;95.90
18141;DHT22;9196;49.194;12.526;2022-07-09T11:30:14;20.80;97.00
18141;DHT22;9196;49.194;12.526;2022-07-09T11:32:41;20.80;97.80
18141;DHT22;9196;49.194;12.526;2022-07-09T11:35:10;20.80;97.20
18141;DHT22;9196;49.194;12.526;2022-07-09T11:37:37;20.70;96.00
18141;DHT22;9196;49.194;12.526;2022-07-09T11:40:05;20.80;96.50
18141;DHT22;9196;49.194;12.526;2022-07-09T11:42:32;20.90;96.40
18141;DHT22;9196;49.194;12.526;2022-07-09T11:45:09;21.10;96.30
18141;DHT22;9196;49.194;12.526;2022-07-09T11:47:36;21.20;95.60
18141;DHT22;9196;49.194;12.526;2022-07-09T11:50:05;21.30;95.20
18141;DHT22;9196;49.194;12.526;2022-07-09T11:52:34;21.30;95.30
18141;DHT22;9196;49.194;12.526;2022-07-09T11:55:02;21.30;96.00
18141;DHT22;9196;49.194;12.526;2022-07-09T11:57:31;21.40;95.70
18141;DHT22;9196;49.194;12.526;2022-07-09T11:59:58;21.40;95.50
18141;DHT22;9196;49.194;12.526;2022-07-09T12:02:26;21.30;94.70
18141;DHT22;9196;49.194;12.526;2022-07-09T12:04:55;21.10;95.00
18141;DHT22;9196;49.194;12.526;2022-07-09T12:07:22;21.20;95.40
18141;DHT22;9196;49.194;12.526;2022-07-09T12:09:58;21.30;95.80
18141;DHT22;9196;49.194;12.526;2022-07-09T12:12:25;21.50;95.50
18141;DHT22;9196;49.194;12.526;2022-07-09T12:14:52;21.60;94.30
18141;DHT22;9196;49.194;12.526;2022-07-09T12:17:20;21.70;94.20
18141;DHT22;9196;49.194;12.526;2022-07-09T12:19:48;21.80;94.70
18141;DHT22;9196;49.194;12.526;2022-07-09T12:22:15;21.90;94.50
18141;DHT22;9196;49.194;12.526;2022-07-09T12:24:42;21.80;93.40
18141;DHT22;9196;49.194;12.526;2022-07-09T12:27:10;21.80;93.60
18141;DHT22;9196;49.194;12.526;2022-07-09T12:29:37;21.70;93.20
18141;DHT22;9196;49.194;12.526;2022-07-09T12:32:04;21.60;93.80
18141;DHT22;9196;49.194;12.526;2022-07-09T12:34:31;21.60;94.00
18141;DHT22;9196;49.194;12.526;2022-07-09T12:36:58;21.40;93.70
18141;DHT22;9196;49.194;12.526;2022-07-09T12:39:25;21.40;93.90
18141;DHT22;9196;49.194;12.526;2022-07-09T12:41:52;21.30;93.90
18141;DHT22;9196;49.194;12.526;2022-07-09T12:44:20;21.30;94.10
18141;DHT22;9196;49.194;12.526;2022-07-09T12:46:47;21.20;94.00
18141;DHT22;9196;49.194;12.526;2022-07-09T12:49:14;21.10;93.90
18141;DHT22;9196;49.194;12.526;2022-07-09T12:51:41;21.10;94.00
18141;DHT22;9196;49.194;12.526;2022-07-09T12:54:07;21.10;95.90
18141;DHT22;9196;49.194;12.526;2022-07-09T12:56:35;21.00;96.90
18141;DHT22;9196;49.194;12.526;2022-07-09T12:59:01;20.90;97.20
18141;DHT22;9196;49.194;12.526;2022-07-09T13:01:30;20.90;97.10
18141;DHT22;9196;49.194;12.526;2022-07-09T13:03:56;20.90;97.90
18141;DHT22;9196;49.194;12.526;2022-07-09T13:06:23;20.90;99.00
18141;DHT22;9196;49.194;12.526;2022-07-09T13:09:00;20.90;99.90
18141;DHT22;9196;49.194;12.526;2022-07-09T13:11:27;21.00;99.90
18141;DHT22;9196;49.194;12.526;2022-07-09T13:13:54;21.10;99.80
18141;DHT22;9196;49.194;12.526;2022-07-09T13:16:20;21.20;98.70
18141;DHT22;9196;49.194;12.526;2022-07-09T13:18:49;21.30;98.40
18141;DHT22;9196;49.194;12.526;2022-07-09T13:21:17;21.40;98.20
18141;DHT22;9196;49.194;12.526;2022-07-09T13:23:43;21.50;98.00
18141;DHT22;9196;49.194;12.526;2022-07-09T13:26:10;21.60;98.50
18141;DHT22;9196;49.194;12.526;2022-07-09T13:28:37;21.80;97.70
18141;DHT22;9196;49.194;12.526;2022-07-09T13:31:04;22.00;98.80
18141;DHT22;9196;49.194;12.526;2022-07-09T13:33:32;22.20;97.80
18141;DHT22;9196;49.194;12.526;2022-07-09T13:36:00;22.30;96.00
18141;DHT22;9196;49.194;12.526;2022-07-09T13:38:28;22.30;94.00
18141;DHT22;9196;49.194;12.526;2022-07-09T13:40:55;22.30;92.70
18141;DHT22;9196;49.194;12.526;2022-07-09T13:43:22;22.20;92.00
18141;DHT22;9196;49.194;12.526;2022-07-09T13:45:51;22.10;91.00
18141;DHT22;9196;49.194;12.526;2022-07-09T13:48:18;22.00;92.00
18141;DHT22;9196;49.194;12.526;2022-07-09T13:50:44;22.10;91.20
18141;DHT22;9196;49.194;12.526;2022-07-09T13:53:13;22.20;91.00
18141;DHT22;9196;49.194;12.526;2022-07-09T13:55:39;22.30;90.70
18141;DHT22;9196;49.194;12.526;2022-07-09T13:58:07;22.30;90.90
18141;DHT22;9196;49.194;12.526;2022-07-09T14:00:33;22.30;90.70
18141;DHT22;9196;49.194;12.526;2022-07-09T14:03:00;22.30;91.10
18141;DHT22;9196;49.194;12.526;2022-07-09T14:05:27;22.20;91.10
18141;DHT22;9196;49.194;12.526;2022-07-09T14:07:54;22.10;91.30
18141;DHT22;9196;49.194;12.526;2022-07-09T14:10:23;22.00;92.00
18141;DHT22;9196;49.194;12.526;2022-07-09T14:12:49;21.90;91.60
18141;DHT22;9196;49.194;12.526;2022-07-09T14:15:16;21.90;92.00
18141;DHT22;9196;49.194;12.526;2022-07-09T14:17:43;21.80;91.90
18141;DHT22;9196;49.194;12.526;2022-07-09T14:20:11;21.70;92.10
18141;DHT22;9196;49.194;12.526;2022-07-09T14:22:38;21.60;91.80
18141;DHT22;9196;49.194;12.526;2022-07-09T14:25:05;21.40;92.10
18141;DHT22;9196;49.194;12.526;2022-07-09T14:27:33;21.20;91.90
18141;DHT22;9196;49.194;12.526;2022-07-09T14:30:00;21.10;92.50
18141;DHT22;9196;49.194;12.526;2022-07-09T14:32:27;21.10;92.80
18141;DHT22;9196;49.194;12.526;2022-07-09T14:34:54;21.20;93.30
18141;DHT22;9196;49.194;12.526;2022-07-09T14:37:21;21.20;92.40
18141;DHT22;9196;49.194;12.526;2022-07-09T14:39:48;21.20;92.90
18141;DHT22;9196;49.194;12.526;2022-07-09T14:42:15;21.20;92.40
18141;DHT22;9196;49.194;12.526;2022-07-09T14:44:43;21.30;93.00
18141;DHT22;9196;49.194;12.526;2022-07-09T14:47:10;21.30;92.70
18141;DHT22;9196;49.194;12.526;2022-07-09T14:49:36;21.40;92.50
18141;DHT22;9196;49.194;12.526;2022-07-09T14:52:04;21.50;92.10
18141;DHT22;9196;49.194;12.526;2022-07-09T14:54:30;21.50;92.20
18141;DHT22;9196;49.194;12.526;2022-07-09T14:56:57;21.50;92.50
18141;DHT22;9196;49.194;12.526;2022-07-09T14:59:24;21.50;92.60
18141;DHT22;9196;49.194;12.526;2022-07-09T15:01:52;21.60;92.60
18141;DHT22;9196;49.194;12.526;2022-07-09T15:04:19;21.60;92.20
18141;DHT22;9196;49.194;12.526;2022-07-09T15:06:46;21.80;92.30
18141;DHT22;9196;49.194;12.526;2022-07-09T15:09:12;21.90;92.10
18141;DHT22;9196;49.194;12.526;2022-07-09T15:11:39;22.00;91.80
18141;DHT22;9196;49.194;12.526;2022-07-09T15:14:06;22.00;91.60
18141;DHT22;9196;49.194;12.526;2022-07-09T15:16:33;22.00;92.00
18141;DHT22;9196;49.194;12.526;2022-07-09T15:19:01;22.00;92.30
18141;DHT22;9196;49.194;12.526;2022-07-09T15:21:28;21.90;91.90
18141;DHT22;9196;49.194;12.526;2022-07-09T15:23:56;21.90;91.50
18141;DHT22;9196;49.194;12.526;2022-07-09T15:26:23;21.80;91.50
18141;DHT22;9196;49.194;12.526;2022-07-09T15:28:50;21.80;91.70
18141;DHT22;9196;49.194;12.526;2022-07-09T15:31:20;21.80;91.20
18141;DHT22;9196;49.194;12.526;2022-07-09T15:33:48;21.80;91.50